Wetterdaten: Woche 15.12.25 - 21.12.25 (KW51)
Datum Zeit Temp. I. Temp. A. Feuchte I. Feuchte A. Luftdruck Regen Wind Richtung Sonnenschein Solar Taupunkt Windchill Windböen
19.12.2025 14:00 21,2 °C 9,7 °C 53 % 82 % 1019,3 hPa 0,0 l/m² 7,2 km/h (2 Bft) S-SO 0,00 h 16 W/m² 6,7 °C 8,9 °C 11,0 km/h (2 Bft)
19.12.2025 15:00 21,2 °C 9,6 °C 53 % 82 % 1019,4 hPa 0,0 l/m² 15,0 km/h (3 Bft) S 0,00 h 9 W/m² 6,7 °C 4,7 °C 21,4 km/h (4 Bft)
19.12.2025 16:00 21,1 °C 9,6 °C 53 % 81 % 1019,5 hPa 0,0 l/m² 13,4 km/h (3 Bft) S 0,00 h 0 W/m² 6,5 °C 5,4 °C 18,2 km/h (3 Bft)
19.12.2025 17:00 21,1 °C 9,4 °C 54 % 82 % 1019,7 hPa 0,0 l/m² 6,1 km/h (2 Bft) S 0,00 h 0 W/m² 6,4 °C 8,2 °C 9,7 km/h (2 Bft)
19.12.2025 18:00 21,0 °C 9,1 °C 54 % 82 % 1020,0 hPa 0,0 l/m² 1,7 km/h (1 Bft) N 0,00 h 0 W/m² 6,2 °C 9,1 °C 3,1 km/h (1 Bft)
19.12.2025 19:00 21,2 °C 8,4 °C 54 % 85 % 1020,2 hPa 0,4 l/m² 1,4 km/h (1 Bft) N 0,00 h 0 W/m² 6,1 °C 8,3 °C 2,8 km/h (1 Bft)
19.12.2025 20:00 21,2 °C 8,2 °C 55 % 88 % 1020,5 hPa 0,0 l/m² 0,0 km/h (0 Bft) N 0,00 h 0 W/m² 6,3 °C 8,2 °C 0,0 km/h (0 Bft)
19.12.2025 21:00 21,5 °C 8,1 °C 55 % 88 % 1020,7 hPa 0,4 l/m² 0,0 km/h (0 Bft) N 0,00 h 0 W/m² 6,3 °C 8,1 °C 0,0 km/h (0 Bft)
19.12.2025 22:00 21,7 °C 7,7 °C 55 % 90 % 1020,7 hPa 0,2 l/m² 0,0 km/h (0 Bft) N 0,00 h 0 W/m² 6,1 °C 7,7 °C 0,0 km/h (0 Bft)
19.12.2025 23:00 21,8 °C 7,7 °C 55 % 91 % 1020,6 hPa 0,0 l/m² 0,0 km/h (0 Bft) N 0,00 h 0 W/m² 6,3 °C 7,7 °C 0,0 km/h (0 Bft)
20.12.2025 00:00 21,6 °C 7,4 °C 56 % 91 % 1020,5 hPa 0,0 l/m² 0,0 km/h (0 Bft) N 0,00 h 0 W/m² 6,1 °C 7,4 °C 0,0 km/h (0 Bft)
20.12.2025 01:00 21,4 °C 7,1 °C 57 % 92 % 1020,4 hPa 0,2 l/m² 0,0 km/h (0 Bft) N 0,00 h 0 W/m² 5,9 °C 7,1 °C 0,0 km/h (0 Bft)
20.12.2025 02:00 21,4 °C 6,9 °C 58 % 92 % 1020,5 hPa 0,0 l/m² 0,0 km/h (0 Bft) N 0,00 h 0 W/m² 5,7 °C 6,9 °C 0,0 km/h (0 Bft)
20.12.2025 03:00 21,4 °C 6,8 °C 58 % 93 % 1020,3 hPa 0,0 l/m² 0,0 km/h (0 Bft) N 0,00 h 0 W/m² 5,7 °C 6,8 °C 0,0 km/h (0 Bft)
20.12.2025 04:00 21,4 °C 6,8 °C 58 % 93 % 1020,1 hPa 0,0 l/m² 0,0 km/h (0 Bft) N 0,00 h 0 W/m² 5,8 °C 6,8 °C 0,0 km/h (0 Bft)
20.12.2025 05:00 21,3 °C 6,7 °C 58 % 93 % 1019,9 hPa 0,0 l/m² 0,0 km/h (0 Bft) N 0,00 h 0 W/m² 5,7 °C 6,7 °C 0,0 km/h (0 Bft)
20.12.2025 06:00 21,3 °C 6,8 °C 58 % 93 % 1019,9 hPa 0,0 l/m² 0,0 km/h (0 Bft) N 0,00 h 0 W/m² 5,8 °C 6,8 °C 0,0 km/h (0 Bft)
20.12.2025 07:00 21,3 °C 6,6 °C 58 % 94 % 1020,1 hPa 0,0 l/m² 0,0 km/h (0 Bft) N 0,00 h 0 W/m² 5,6 °C 6,6 °C 0,0 km/h (0 Bft)
20.12.2025 08:00 21,3 °C 6,4 °C 59 % 94 % 1020,2 hPa 0,0 l/m² 0,0 km/h (0 Bft) N 0,00 h 9 W/m² 5,5 °C 6,4 °C 0,0 km/h (0 Bft)
20.12.2025 09:00 21,5 °C 6,7 °C 59 % 94 % 1020,3 hPa 0,0 l/m² 0,3 km/h (0 Bft) N 0,05 h 35 W/m² 5,9 °C 6,7 °C 0,7 km/h (0 Bft)
20.12.2025 10:00 21,5 °C 7,7 °C 57 % 94 % 1020,1 hPa 0,0 l/m² 0,0 km/h (0 Bft) N 0,95 h 58 W/m² 6,9 °C 7,7 °C 0,0 km/h (0 Bft)
20.12.2025 11:00 21,4 °C 8,3 °C 57 % 94 % 1019,9 hPa 0,0 l/m² 0,1 km/h (0 Bft) N 1,00 h 87 W/m² 7,4 °C 8,3 °C 0,2 km/h (0 Bft)
20.12.2025 12:00 21,4 °C 8,8 °C 59 % 94 % 1019,5 hPa 0,0 l/m² 0,2 km/h (0 Bft) N 1,00 h 86 W/m² 7,9 °C 8,8 °C 0,3 km/h (0 Bft)
20.12.2025 13:00 21,3 °C 8,9 °C 57 % 94 % 1019,0 hPa 0,0 l/m² 0,0 km/h (0 Bft) N 0,73 h 55 W/m² 8,0 °C 8,9 °C 0,0 km/h (0 Bft)
20.12.2025 14:00 21,2 °C 8,9 °C 57 % 93 % 1018,6 hPa 0,0 l/m² 1,3 km/h (1 Bft) N 0,05 h 27 W/m² 7,9 °C 8,9 °C 3,3 km/h (1 Bft)
20.12.2025 15:00 21,3 °C 8,7 °C 58 % 92 % 1018,5 hPa 0,0 l/m² 1,5 km/h (1 Bft) O-NO 0,00 h 14 W/m² 7,5 °C 8,7 °C 3,8 km/h (1 Bft)
20.12.2025 16:00 21,3 °C 8,4 °C 57 % 92 % 1018,4 hPa 0,0 l/m² 3,7 km/h (1 Bft) O-NO 0,00 h 0 W/m² 7,2 °C 8,4 °C 7,0 km/h (2 Bft)
20.12.2025 17:00 21,2 °C 8,3 °C 56 % 92 % 1018,2 hPa 0,0 l/m² 3,7 km/h (1 Bft) O-NO 0,00 h 0 W/m² 7,1 °C 8,2 °C 7,3 km/h (2 Bft)
20.12.2025 18:00 21,2 °C 8,2 °C 56 % 93 % 1018,1 hPa 0,0 l/m² 0,5 km/h (0 Bft) N 0,00 h 0 W/m² 7,1 °C 8,1 °C 1,1 km/h (1 Bft)
20.12.2025 19:00 21,1 °C 7,8 °C 57 % 93 % 1017,9 hPa 0,0 l/m² 2,3 km/h (1 Bft) O-NO 0,00 h 0 W/m² 6,8 °C 7,9 °C 4,7 km/h (1 Bft)
20.12.2025 20:00 21,1 °C 7,5 °C 57 % 93 % 1017,9 hPa 0,0 l/m² 5,7 km/h (2 Bft) O-NO 0,00 h 0 W/m² 6,4 °C 7,0 °C 9,2 km/h (2 Bft)
20.12.2025 21:00 21,1 °C 6,9 °C 57 % 93 % 1017,8 hPa 0,0 l/m² 6,1 km/h (2 Bft) O-NO 0,00 h 0 W/m² 5,9 °C 6,3 °C 9,8 km/h (2 Bft)
20.12.2025 22:00 21,1 °C 6,6 °C 57 % 94 % 1017,7 hPa 0,0 l/m² 3,3 km/h (1 Bft) O 0,00 h 0 W/m² 5,7 °C 6,6 °C 5,5 km/h (2 Bft)
20.12.2025 23:00 21,1 °C 6,2 °C 57 % 94 % 1017,4 hPa 0,0 l/m² 1,6 km/h (1 Bft) N 0,00 h 0 W/m² 5,3 °C 6,2 °C 3,0 km/h (1 Bft)
21.12.2025 00:00 21,1 °C 5,8 °C 56 % 94 % 1017,3 hPa 0,0 l/m² 2,1 km/h (1 Bft) O-NO 0,00 h 0 W/m² 4,9 °C 5,8 °C 4,6 km/h (1 Bft)
21.12.2025 01:00 21,1 °C 5,7 °C 56 % 94 % 1017,2 hPa 0,0 l/m² 5,4 km/h (2 Bft) O 0,00 h 0 W/m² 4,8 °C 5,2 °C 9,2 km/h (2 Bft)
21.12.2025 02:00 21,1 °C 5,8 °C 56 % 94 % 1017,2 hPa 0,0 l/m² 3,9 km/h (1 Bft) O 0,00 h 0 W/m² 5,0 °C 5,7 °C 6,9 km/h (2 Bft)
21.12.2025 03:00 21,1 °C 5,7 °C 56 % 94 % 1017,2 hPa 0,0 l/m² 5,2 km/h (1 Bft) O-NO 0,00 h 0 W/m² 4,8 °C 5,2 °C 8,6 km/h (2 Bft)
21.12.2025 04:00 21,1 °C 5,4 °C 56 % 94 % 1017,0 hPa 0,0 l/m² 0,4 km/h (0 Bft) N 0,00 h 0 W/m² 4,6 °C 5,4 °C 0,7 km/h (0 Bft)
21.12.2025 05:00 21,1 °C 5,3 °C 56 % 94 % 1016,9 hPa 0,0 l/m² 0,0 km/h (0 Bft) N 0,00 h 0 W/m² 4,4 °C 5,3 °C 0,0 km/h (0 Bft)
21.12.2025 06:00 21,1 °C 4,5 °C 56 % 94 % 1016,7 hPa 0,0 l/m² 0,0 km/h (0 Bft) N 0,00 h 0 W/m² 3,6 °C 4,5 °C 0,0 km/h (0 Bft)
21.12.2025 07:00 21,0 °C 3,4 °C 56 % 94 % 1017,1 hPa 0,0 l/m² 0,0 km/h (0 Bft) N 0,00 h 0 W/m² 2,5 °C 3,4 °C 0,0 km/h (0 Bft)
21.12.2025 08:00 21,2 °C 2,8 °C 57 % 94 % 1017,3 hPa 0,0 l/m² 0,0 km/h (0 Bft) N 0,00 h 14 W/m² 2,0 °C 2,8 °C 0,0 km/h (0 Bft)
21.12.2025 09:00 21,6 °C 3,5 °C 57 % 94 % 1017,3 hPa 0,0 l/m² 0,5 km/h (0 Bft) N 0,72 h 80 W/m² 2,6 °C 3,5 °C 1,2 km/h (1 Bft)
21.12.2025 10:00 21,8 °C 6,2 °C 55 % 94 % 1017,1 hPa 0,0 l/m² 9,1 km/h (2 Bft) O 0,98 h 236 W/m² 5,3 °C 3,8 °C 14,2 km/h (3 Bft)
21.12.2025 11:00 22,0 °C 7,5 °C 53 % 88 % 1016,9 hPa 0,0 l/m² 9,6 km/h (2 Bft) O 1,02 h 257 W/m² 5,6 °C 4,9 °C 13,6 km/h (3 Bft)
21.12.2025 12:00 22,1 °C 8,6 °C 53 % 84 % 1016,6 hPa 0,0 l/m² 9,2 km/h (2 Bft) O 1,00 h 259 W/m² 6,0 °C 6,6 °C 13,3 km/h (3 Bft)
21.12.2025 13:00 22,1 °C 8,7 °C 55 % 83 % 1016,3 hPa 0,0 l/m² 9,6 km/h (2 Bft) O 1,00 h 182 W/m² 6,0 °C 6,4 °C 13,5 km/h (3 Bft)
21.12.2025 14:00 22,0 °C 8,3 °C 55 % 85 % 1016,1 hPa 0,0 l/m² 6,3 km/h (2 Bft) O 1,00 h 100 W/m² 5,9 °C 7,6 °C 10,2 km/h (2 Bft)
21.12.2025 15:00 22,0 °C 8,1 °C 56 % 86 % 1015,9 hPa 0,0 l/m² 0,1 km/h (0 Bft) NO 0,07 h 31 W/m² 5,9 °C 8,1 °C 0,4 km/h (0 Bft)
21.12.2025 16:00 22,3 °C 6,6 °C 59 % 86 % 1016,0 hPa 0,0 l/m² 0,0 km/h (0 Bft) O-NO 0,00 h 5 W/m² 4,5 °C 6,6 °C 0,0 km/h (0 Bft)
21.12.2025 17:00 22,2 °C 4,7 °C 58 % 88 % 1016,1 hPa 0,0 l/m² 1,0 km/h (0 Bft) O-NO 0,00 h 0 W/m² 2,9 °C 4,7 °C 2,4 km/h (1 Bft)
21.12.2025 18:00 21,9 °C 6,1 °C 57 % 92 % 1015,9 hPa 0,0 l/m² 10,1 km/h (2 Bft) O-NO 0,00 h 0 W/m² 4,8 °C 3,2 °C 16,2 km/h (3 Bft)
21.12.2025 19:00 21,8 °C 6,1 °C 57 % 92 % 1016,1 hPa 0,0 l/m² 12,5 km/h (2 Bft) O-NO 0,00 h 0 W/m² 4,9 °C 1,9 °C 19,3 km/h (3 Bft)
21.12.2025 20:00 22,2 °C 6,0 °C 57 % 92 % 1016,3 hPa 0,0 l/m² 9,6 km/h (2 Bft) O-NO 0,00 h 0 W/m² 4,8 °C 3,5 °C 15,8 km/h (3 Bft)
21.12.2025 21:00 22,4 °C 5,8 °C 57 % 92 % 1016,5 hPa 0,0 l/m² 13,2 km/h (3 Bft) O-NO 0,00 h 0 W/m² 4,6 °C 1,2 °C 19,9 km/h (4 Bft)
21.12.2025 22:00 22,1 °C 5,6 °C 56 % 92 % 1016,4 hPa 0,0 l/m² 12,2 km/h (2 Bft) O-NO 0,00 h 0 W/m² 4,4 °C 1,5 °C 19,1 km/h (3 Bft)
21.12.2025 23:00 21,9 °C 5,4 °C 57 % 92 % 1016,3 hPa 0,0 l/m² 15,0 km/h (3 Bft) O 0,00 h 0 W/m² 4,2 °C -0,3 °C 22,0 km/h (4 Bft)
Min-Datum _ 21.12.25 21.12.25 21.12.25 19.12.25 21.12.25 - 21.12.25 - - - 21.12.25 21.12.25 21.12.25
_ Min-Zeit 07:46 08:08 12:00 18:25 19:02 - 17:01 - - - 08:09 23:59 17:01
Minimum _ 20,9 °C 2,8 °C 53 % 80 % 1015,8 hPa - 0,0 km/h (0 Bft) - - - 1,8 °C -4,0 °C 0,0 km/h (0 Bft)
Max-Datum _ 21.12.25 19.12.25 20.12.25 21.12.25 19.12.25 19.12.25 21.12.25 - 21.12.25 21.12.25 20.12.25 19.12.25 21.12.25
_ Max-Zeit 21:03 16:01 12:24 10:00 21:47 21:12 19:06 - 12:10 11:29 12:31 14:54 23:57
Maximum _ 22,4 °C 9,7 °C 60 % 95 % 1020,9 hPa 0,4 l/m² 23,3 km/h
O-NO (4 Bft)
- 0,15 h 271 W/m² 8,1 °C 9,7 °C 32,2 km/h
O (5 Bft)
Durchschnitt _ 21,5 °C 7,0 °C 56 % 91 % 1018,3 hPa #1,2 l/m² 3,6 km/h (1 Bft) N #9:39 h 27 W/m² 5,6 °C 6,2 °C 5,7 km/h (2 Bft)
© 2009 Mathias Hoßbach